METAR Data
IDs: Format: Raw Decoded Include TAF

Data at: 1621 UTC 19 Sep 2018

KEST 191615Z AUTO 10004KT 6SM -RA BR BKN004 BKN090 OVC110 18/18 A3000 RMK AO2 CIG 003V007 P0003 T01780178
KEST 191602Z AUTO 06004KT 3SM RA BR FEW006 BKN090 OVC110 18/18 A2999 RMK AO2 P0003 T01780178
KEST 191552Z AUTO 09006KT 2SM +RA BR FEW060 BKN095 OVC110 18/18 A2998 RMK AO2 SLP151 P0025 T01780178
KEST 191540Z AUTO 01004KT 1 1/2SM +RA BR FEW060 OVC095 18/18 A3000 RMK AO2 P0018 T01780178
KEST 191533Z AUTO 00000KT 2SM RA BR BKN090 OVC110 18/18 A3000 RMK AO2 P0013 T01780178
KEST 191522Z AUTO 00000KT 3SM RA BR FEW075 OVC095 18/18 A2999 RMK AO2 LTG DSNT S P0010 T01780178
KEST 191452Z AUTO 34003KT 2 1/2SM RA BR OVC110 18/18 A2998 RMK AO2 RAB10 SLP150 P0009 60031 T01780178 55003
KEST 191352Z AUTO 00000KT 10SM FEW008 SCT080 BKN100 18/18 A2993 RMK AO2 PK WND 13031/1312 RAE08 PRESRR SLP132 P0001 T01780178
KEST 191252Z AUTO 12014KT 4SM RA BR BKN090 OVC110 17/17 A2992 RMK AO2 PRESFR SLP130 P0021 T01670167
KEST 191152Z AUTO 14006KT 4SM RA BR FEW009 BKN090 OVC110 16/16 A2999 RMK AO2 LTG DSNT E-S TSB15E41 SLP152 P0021 60021 70072 T01610161 10161 20139 53014
KEST 191142Z AUTO 16006KT 4SM VCTS RA BR FEW009 SCT047 OVC085 16/16 A2999 RMK AO2 LTG DSNT E-S TSB15E41 PRESFR P0017 T01610161
KEST 191140Z AUTO 16006KT 4SM TSRA BR FEW011 BKN075 OVC090 16/16 A3000 RMK AO2 LTG DSNT E-SW TSB15 P0017 T01610161
KEST 191133Z AUTO 21004KT 2 1/2SM TSRA BR FEW007 BKN044 OVC080 16/16 A3001 RMK AO2 LTG DSNT ALQDS TSB15 P0016 T01610161
KEST 191126Z AUTO 20004KT 1 3/4SM +TSRA BR SCT007 BKN017 OVC040 16/16 A3001 RMK AO2 LTG DSNT ALQDS TSB15 P0014 T01610161
KEST 191117Z AUTO 00000KT 2 1/2SM +TSRA BR FEW009 BKN017 OVC050 16/16 A3002 RMK AO2 LTG DSNT ALQDS TSB15 PRESRR P0008 T01610161
KEST 191101Z AUTO 20003KT 6SM VCTS -RA BR FEW009 OVC017 16/16 A2999 RMK AO2 LTG DSNT ALQDS PRESRR P0002 T01610161
KEST 191052Z AUTO 11004KT 8SM -RA FEW006 OVC019 16/16 A2996 RMK AO2 LTG DSNT S-W RAB50 SLP143 P0000 T01610161
KEST 191043Z AUTO 10006KT 8SM SCT005 OVC021 16/16 A2996 RMK AO2 LTG DSNT S-W T01610161
KEST 191032Z AUTO 11006KT 8SM BKN005 OVC021 16/16 A2996 RMK AO2 LTG DSNT S-W T01610161
KEST 190952Z AUTO 11007KT 7SM BKN003 OVC022 16/16 A2993 RMK AO2 SLP132 T01560156
KEST 190852Z AUTO 05004KT 5SM BR BKN004 OVC022 14/14 A2995 RMK AO2 SLP138 T01440144 56010
KEST 190841Z AUTO 06003KT 5SM BR SCT004 OVC022 14/14 A2995 RMK AO2 T01440144
KEST 190752Z AUTO 06003KT 6SM BR OVC023 14/14 A2997 RMK AO2 SLP145 T01390139
KEST 190742Z AUTO 08003KT 6SM BR BKN023 14/14 A2997 RMK AO2 T01390139
KEST 190652Z AUTO 00000KT 8SM FEW075 14/13 A2998 RMK AO2 SLP149 T01390133
KEST 190552Z AUTO 09006KT 7SM CLR 14/14 A2997 RMK AO2 SLP146 T01440139 10183 20133 401940133 58004
KEST 190452Z AUTO 03004KT 9SM CLR 14/14 A2998 RMK AO2 SLP151 T01440139
KEST 190352Z AUTO 05004KT 10SM CLR 14/14 A2998 RMK AO2 SLP151 T01440144
KEST 190252Z AUTO 07003KT 10SM CLR 15/15 A2998 RMK AO2 SLP150 T01500150 53009
KEST 190152Z AUTO 02003KT 10SM CLR 16/15 A2997 RMK AO2 SLP147 T01560150
KEST 190052Z AUTO 01003KT 10SM CLR 17/16 A2995 RMK AO2 SLP141 T01670156
KEST 190005Z AUTO 00000KT 10SM SCT017 18/16 A2995 RMK AO2 T01830161
KEST 182352Z AUTO 00000KT 10SM BKN017 18/16 A2995 RMK AO2 SLP139 T01830161 10194 20178 51003
KEST 182325Z AUTO 15006KT 10SM BKN017 19/17 A2995 RMK AO2 T01940167
KEST 182252Z AUTO 14008KT 10SM SCT014 19/17 A2994 RMK AO2 SLP136 T01940167
KEST 182152Z AUTO 13007KT 10SM OVC014 19/16 A2995 RMK AO2 SLP139 T01890161
KEST 182117Z AUTO 15008KT 10SM OVC016 19/17 A2994 RMK AO2 T01890167
KEST 182052Z AUTO 15006KT 10SM OVC014 18/16 A2994 RMK AO2 SLP137 T01830161 58007
KEST 181952Z AUTO 17005KT 10SM BKN013 18/17 A2997 RMK AO2 SLP145 T01830167
KEST 181852Z AUTO 15009KT 10SM OVC011 18/16 A3000 RMK AO2 CIG 009V014 SLP156 T01780161
KEST 181826Z AUTO 15014G21KT 10SM BKN011 18/17 A2998 RMK AO2 T01780167
KEST 181752Z AUTO 15013G20KT 10SM CLR 18/17 A2996 RMK AO2 PK WND 12026/1703 SLP144 60051 T01780167 10178 20150 55014
KEST 181652Z AUTO 13015G28KT 10SM FEW006 FEW021 18/17 A2993 RMK AO2 PK WND 13033/1635 RAE33 SLP134 P0006 T01780172
KEST 181642Z AUTO 14019G33KT 10SM FEW008 SCT029 17/17 A2993 RMK AO2 PK WND 13033/1635 RAE33 P0006 T01720167
KEST 181552Z AUTO 15010KT 8SM -RA FEW030 SCT055 OVC100 17/17 A3003 RMK AO2 RAB04 SLP166 P0005 T01720167
KEST 181531Z AUTO 15010KT 5SM RA BR FEW036 BKN080 OVC110 17/17 A3005 RMK AO2 LTG DSNT E-SW RAB04 PRESRR P0004 T01720167
KEST 181452Z AUTO 10010KT 10SM VCTS FEW015 BKN060 OVC110 17/16 A3000 RMK AO2 SLP157 60040 T01720161 55013
KEST 181352Z AUTO 04012KT 10SM CLR 16/16 A2993 RMK AO2 LTG DSNT NW RAE24 TSE10 SLP133 P0016 T01610156
KEST 181332Z AUTO 04016G24KT 10SM FEW041 SCT095 SCT110 16/15 A2993 RMK AO2 LTG DSNT E RAE24 TSE10 PRESFR P0016 T01560150
KEST 181314Z AUTO 02014G24KT 3SM VCTS -RA BR FEW012 SCT045 BKN095 15/15 A2997 RMK AO2 LTG DSNT ALQDS TSE10 P0016 T01500150
KEST 181307Z AUTO 03016G23KT 2SM +TSRA BR FEW016 BKN047 OVC095 15/15 A2998 RMK AO2 LTG DSNT ALQDS PRESFR P0015 T01500150
KEST 181300Z AUTO 02013G20KT 1 3/4SM +TSRA BR FEW007 BKN045 OVC090 15/15 A3001 RMK AO2 VIS 1V2 1/2 LTG DSNT ALQDS PRESFR P0009 T01500150
KEST 181252Z AUTO 01012G20KT 1 3/4SM +TSRA BR FEW007 OVC018 15/15 A3003 RMK AO2 PK WND 33026/1234 LTG DSNT ALQDS RAB34 TSB37 SLP168 P0024 T01500150
KEST 181249Z AUTO 02010G17KT 2 1/2SM +TSRA BR BKN009 OVC018 15/15 A3004 RMK AO2 PK WND 33026/1234 LTG DSNT ALQDS RAB34 TSB37 P0019
KEST 181242Z AUTO 35012G25KT 4SM -TSRA BR BKN003 OVC020 15/15 A3004 RMK AO2 PK WND 33026/1234 LTG DSNT SW-N RAB34 TSB37 P0001 T01500150
KEST 181238Z AUTO 33017G25KT 1 1/4SM -TSRA BR BKN003 OVC021 15/15 A3004 RMK AO2 PK WND 33026/1234 LTG DSNT SW-N RAB34 TSB37 P0001 T01500150
KEST 181234Z AUTO 3/4SM VCTS -RA BR BKN003 OVC100 16/16 A3002 RMK AO2 PK WND 33026/1234 LTG DSNT SW-N RAB34 PRESRR P0001 T01560156
KEST 181226Z AUTO 02008KT 3/4SM BR VV002 16/16 A2995 RMK AO2 LTG DSNT SW-N T01560156
KEST 181214Z AUTO 03006KT 1SM BR VV002 16/16 A2994 RMK AO2 LTG DSNT SW-NW T01560156
KEST 181152Z AUTO 03006KT 1/2SM FG BKN002 OVC120 16/16 A2993 RMK AO2 LTG DSNT E AND SE SLP132 70014 T01560156 10156 20150 53008
KEST 181116Z AUTO 03008KT 3/4SM BR VV002 16/16 A2993 RMK AO2 LTG DSNT SE T01560156
KEST 181057Z AUTO 04008KT 1 1/4SM BR OVC002 16/16 A2993 RMK AO2 T01560156
KEST 181052Z AUTO 04008KT 3/4SM BR VV002 16/16 A2992 RMK AO2 SLP128 T01560156
KEST 180952Z AUTO 03006KT 3/4SM BR VV002 15/15 A2991 RMK AO2 SLP125 T01500150
KEST 180947Z AUTO 04006KT 1 1/2SM BR BKN002 15/15 A2991 RMK AO2
KEST 180942Z AUTO 03006KT 4SM BR BKN002 15/15 A2991 RMK AO2 T01500150
KEST 180923Z AUTO 03006KT 7SM SCT002 15/15 A2992 RMK AO2 T01500150
KEST 180852Z AUTO 07004KT 8SM CLR 15/15 A2991 RMK AO2 SLP123 T01500150 56018
KEST 180752Z AUTO 07003KT 9SM CLR 15/15 A2991 RMK AO2 SLP128 T01500150
KEST 180652Z AUTO 05003KT 8SM CLR 15/15 A2994 RMK AO2 SLP134 T01500150
KEST 180552Z AUTO 04004KT 10SM CLR 16/16 A2996 RMK AO2 SLP138 T01560156 10206 20156 403000144 58000
KEST 180452Z AUTO 04006KT 10SM CLR 17/16 A2997 RMK AO2 SLP142 T01670156